createdAt,value
2018-12-19T00:02:26.413Z,15.10
2018-12-19T00:05:00.228Z,12.03
2018-12-19T00:07:34.207Z,15.53
2018-12-19T00:10:08.521Z,14.20
2018-12-19T00:12:42.449Z,14.17
2018-12-19T00:15:16.560Z,13.87
2018-12-19T00:17:50.468Z,14.63
2018-12-19T00:20:24.275Z,13.33
2018-12-19T00:22:58.155Z,14.63
2018-12-19T00:25:32.059Z,14.23
2018-12-19T00:28:06.207Z,12.53
2018-12-19T00:30:40.417Z,12.63
2018-12-19T00:33:14.423Z,15.70
2018-12-19T00:35:48.106Z,15.37
2018-12-19T00:38:21.906Z,13.23
2018-12-19T00:40:55.680Z,12.93
2018-12-19T00:43:29.642Z,13.63
2018-12-19T00:46:03.728Z,10.03
2018-12-19T00:48:37.764Z,13.90
2018-12-19T00:51:11.574Z,15.07
2018-12-19T00:53:45.682Z,12.97
2018-12-19T00:56:19.589Z,13.67
2018-12-19T00:58:53.352Z,15.73
2018-12-19T01:01:27.507Z,14.90
2018-12-19T01:04:01.121Z,14.07
2018-12-19T01:06:34.963Z,13.67
2018-12-19T01:09:08.922Z,14.27
2018-12-19T01:11:42.784Z,15.20
2018-12-19T01:14:16.817Z,14.43
2018-12-19T01:16:50.866Z,15.70
2018-12-19T01:19:24.959Z,13.60
2018-12-19T01:21:58.807Z,15.47
2018-12-19T01:24:32.772Z,12.93
2018-12-19T01:27:07.601Z,12.63
2018-12-19T01:29:41.340Z,12.63
2018-12-19T01:32:15.141Z,12.90
2018-12-19T01:34:48.896Z,12.83
2018-12-19T01:37:22.923Z,14.60
2018-12-19T01:39:56.690Z,13.03
2018-12-19T01:42:30.738Z,13.67
2018-12-19T01:45:06.741Z,11.57
2018-12-19T01:47:40.510Z,12.37
2018-12-19T01:50:14.609Z,13.23
2018-12-19T01:52:48.517Z,13.20
2018-12-19T01:55:22.315Z,12.67
2018-12-19T01:57:56.436Z,13.33
2018-12-19T02:00:32.080Z,11.47
2018-12-19T02:03:06.198Z,12.13
2018-12-19T02:05:40.100Z,10.33
2018-12-19T02:08:14.007Z,9.87
2018-12-19T02:10:47.813Z,9.93
2018-12-19T02:13:21.822Z,9.00
2018-12-19T02:15:55.626Z,9.53
2018-12-19T02:18:29.636Z,8.70
2018-12-19T02:21:03.457Z,8.70
2018-12-19T02:23:37.556Z,7.83
2018-12-19T02:26:11.184Z,8.23
2018-12-19T02:28:45.162Z,9.03
2018-12-19T02:31:18.967Z,8.83
2018-12-19T02:33:52.976Z,9.43
2018-12-19T02:36:26.988Z,7.33
2018-12-19T02:39:00.855Z,8.03
2018-12-19T02:41:35.009Z,8.33
2018-12-19T02:44:08.860Z,7.20
2018-12-19T02:46:43.001Z,7.77
2018-12-19T02:49:17.034Z,8.57
2018-12-19T02:51:51.044Z,8.00
2018-12-19T02:54:25.395Z,7.93
2018-12-19T02:56:59.168Z,9.17
2018-12-19T02:59:33.149Z,12.53
2018-12-19T03:02:07.202Z,9.53
2018-12-19T03:04:41.194Z,10.03
2018-12-19T03:07:15.204Z,10.83
2018-12-19T03:09:48.821Z,9.67
2018-12-19T03:12:22.917Z,9.47
2018-12-19T03:14:56.668Z,11.37
2018-12-19T03:17:30.729Z,9.20
2018-12-19T03:20:04.945Z,9.50
2018-12-19T03:22:38.954Z,10.83
2018-12-19T03:25:12.831Z,9.47
2018-12-19T03:27:46.972Z,10.03
2018-12-19T03:30:20.758Z,10.37
2018-12-19T03:32:54.993Z,9.53
2018-12-19T03:35:28.900Z,10.43
2018-12-19T03:38:02.911Z,10.37
2018-12-19T03:40:36.718Z,10.93
2018-12-19T03:43:10.564Z,10.40
2018-12-19T03:45:44.530Z,10.17
2018-12-19T03:48:23.966Z,11.87
2018-12-19T03:50:58.024Z,10.87
2018-12-19T03:53:32.062Z,10.80
2018-12-19T03:56:06.198Z,9.67
2018-12-19T03:58:40.105Z,11.20
2018-12-19T04:01:13.909Z,11.37
2018-12-19T04:03:47.715Z,11.73
2018-12-19T04:06:21.464Z,10.83
2018-12-19T04:08:55.529Z,9.90
2018-12-19T04:11:29.339Z,9.70
2018-12-19T04:14:03.145Z,10.40
2018-12-19T04:16:37.369Z,10.23
2018-12-19T04:19:11.261Z,9.70
2018-12-19T04:21:45.174Z,10.70
2018-12-19T04:24:18.919Z,13.13
2018-12-19T04:26:52.957Z,10.00
2018-12-19T04:29:27.094Z,10.53
2018-12-19T04:32:01.014Z,10.80
2018-12-19T04:34:35.013Z,12.63
2018-12-19T04:37:08.920Z,11.93
2018-12-19T04:39:42.627Z,11.63
2018-12-19T04:42:16.528Z,12.23
2018-12-19T04:44:50.439Z,11.83
2018-12-19T04:47:24.450Z,12.63
2018-12-19T04:49:58.555Z,13.30
2018-12-19T04:52:32.657Z,13.00
2018-12-19T04:55:06.780Z,12.17
2018-12-19T04:57:40.792Z,13.47
2018-12-19T05:00:14.777Z,11.80
2018-12-19T05:02:48.813Z,11.73
2018-12-19T05:05:22.820Z,11.43
2018-12-19T05:07:57.138Z,13.20
2018-12-19T05:10:31.046Z,13.07
2018-12-19T05:13:04.852Z,12.33
2018-12-19T05:15:38.762Z,13.60
2018-12-19T05:18:12.661Z,12.10
2018-12-19T05:20:46.468Z,12.10
2018-12-19T05:23:20.579Z,13.90
2018-12-19T05:25:54.383Z,11.97
2018-12-19T05:28:28.291Z,12.73
2018-12-19T05:31:02.914Z,10.73
2018-12-19T05:33:36.923Z,12.13
2018-12-19T05:36:10.934Z,13.33
2018-12-19T05:38:44.739Z,13.77
2018-12-19T05:41:18.851Z,11.83
2018-12-19T05:43:52.685Z,12.97
2018-12-19T05:46:26.666Z,12.67
2018-12-19T05:49:00.540Z,13.33
2018-12-19T05:51:34.527Z,12.67
2018-12-19T05:54:08.595Z,13.33
2018-12-19T05:56:42.397Z,13.70
2018-12-19T05:59:16.411Z,13.33
2018-12-19T06:01:50.417Z,12.73
2018-12-19T06:04:24.260Z,13.03
2018-12-19T06:06:58.017Z,13.37
2018-12-19T06:09:31.839Z,13.40
2018-12-19T06:12:05.530Z,12.67
2018-12-19T06:14:39.356Z,14.50
2018-12-19T06:17:13.348Z,13.00
2018-12-19T06:19:47.152Z,13.70
2018-12-19T06:22:21.274Z,14.40
2018-12-19T06:24:55.171Z,13.87
2018-12-19T06:27:28.976Z,14.73
2018-12-19T06:30:02.883Z,12.67
2018-12-19T06:32:37.301Z,13.37
2018-12-19T06:35:11.224Z,13.33
2018-12-19T06:37:45.017Z,12.10
2018-12-19T06:40:18.928Z,13.67
2018-12-19T06:42:54.316Z,13.63
2018-12-19T06:45:28.169Z,12.67
2018-12-19T06:48:02.386Z,13.97
2018-12-19T06:50:36.495Z,14.80
2018-12-19T06:53:10.403Z,12.70
2018-12-19T06:55:44.200Z,14.57
2018-12-19T06:58:18.218Z,14.27
2018-12-19T07:00:51.894Z,14.20
2018-12-19T07:03:25.928Z,12.63
2018-12-19T07:05:59.938Z,13.67
2018-12-19T07:08:33.948Z,14.50
2018-12-19T07:11:07.722Z,16.27
2018-12-19T07:13:41.864Z,16.20
2018-12-19T07:16:15.877Z,15.73
2018-12-19T07:18:49.678Z,18.37
2018-12-19T07:21:23.586Z,16.10
2018-12-19T07:23:57.698Z,16.47
2018-12-19T07:26:31.605Z,15.00
2018-12-19T07:29:05.320Z,15.40
2018-12-19T07:31:39.317Z,25.10
2018-12-19T07:34:13.227Z,30.07
2018-12-19T07:36:47.047Z,25.10
2018-12-19T07:39:21.039Z,17.27
2018-12-19T07:41:55.048Z,17.97
2018-12-19T07:44:29.060Z,13.93
2018-12-19T07:47:02.864Z,16.93
2018-12-19T07:49:36.684Z,15.17
2018-12-19T07:52:10.575Z,15.23
2018-12-19T07:54:44.485Z,15.47
2018-12-19T07:57:18.287Z,14.47
2018-12-19T07:59:52.053Z,15.37
2018-12-19T08:02:26.100Z,14.77
2018-12-19T08:05:00.008Z,14.00
2018-12-19T08:07:33.916Z,14.70
2018-12-19T08:10:07.926Z,14.40
2018-12-19T08:12:41.934Z,15.13
2018-12-19T08:15:15.844Z,15.70
2018-12-19T08:17:49.708Z,16.83
2018-12-19T08:20:23.655Z,17.77
2018-12-19T08:22:57.531Z,16.47
2018-12-19T08:25:31.470Z,16.43
2018-12-19T08:28:05.684Z,16.50
2018-12-19T08:30:39.594Z,17.50
2018-12-19T08:33:13.408Z,16.10
2018-12-19T08:35:47.611Z,17.33
2018-12-19T08:38:21.344Z,18.10
2018-12-19T08:40:58.718Z,17.03
2018-12-19T08:43:30.972Z,18.40
2018-12-19T08:46:04.674Z,17.07
2018-12-19T08:48:38.598Z,17.87
2018-12-19T08:51:12.455Z,18.47
2018-12-19T08:53:46.349Z,18.33
2018-12-19T08:56:20.259Z,16.67
2018-12-19T08:58:54.210Z,18.33
2018-12-19T09:01:28.221Z,18.83
2018-12-19T09:04:02.127Z,18.00
2018-12-19T09:06:36.034Z,17.60
2018-12-19T09:09:09.793Z,17.93
2018-12-19T09:11:43.645Z,18.50
2018-12-19T09:14:17.616Z,18.37
2018-12-19T09:16:51.687Z,18.73
2018-12-19T09:19:25.678Z,19.50
2018-12-19T09:21:59.785Z,18.80
2018-12-19T09:24:33.897Z,19.60
2018-12-19T09:27:07.802Z,22.33
2018-12-19T09:29:41.655Z,20.70
2018-12-19T09:32:15.719Z,23.13
2018-12-19T09:34:49.426Z,19.27
2018-12-19T09:37:23.369Z,24.00
2018-12-19T09:39:57.133Z,24.37
2018-12-19T09:42:30.805Z,23.30
2018-12-19T09:45:04.845Z,22.37
2018-12-19T09:47:38.878Z,22.27
2018-12-19T09:50:12.659Z,21.60
2018-12-19T09:52:46.469Z,22.63
2018-12-19T09:55:20.475Z,22.60
2018-12-19T09:57:54.381Z,22.23
2018-12-19T10:00:28.390Z,20.10
2018-12-19T10:03:02.351Z,20.10
2018-12-19T10:05:36.311Z,21.67
2018-12-19T10:08:10.219Z,22.87
2018-12-19T10:10:44.124Z,20.73
2018-12-19T10:13:17.927Z,22.20
2018-12-19T10:15:51.833Z,21.20
2018-12-19T10:18:25.843Z,20.97
2018-12-19T10:20:59.853Z,24.43
2018-12-19T10:23:33.863Z,19.73
2018-12-19T10:26:12.888Z,22.77
2018-12-19T10:28:46.796Z,22.63
2018-12-19T10:31:20.808Z,22.50
2018-12-19T10:33:54.817Z,22.50
2018-12-19T10:36:34.561Z,18.73
2018-12-19T10:39:12.931Z,22.83
2018-12-19T10:41:46.950Z,21.97
2018-12-19T10:44:20.941Z,22.90
2018-12-19T10:46:55.129Z,23.67
2018-12-19T10:49:29.071Z,23.57
2018-12-19T10:52:03.225Z,24.03
2018-12-19T10:54:37.101Z,23.13
2018-12-19T10:57:11.143Z,25.13
2018-12-19T10:59:45.264Z,22.90
2018-12-19T11:02:19.264Z,22.43
2018-12-19T11:04:54.335Z,18.97
2018-12-19T11:07:28.512Z,20.27
2018-12-19T11:10:02.160Z,18.03
2018-12-19T11:12:36.028Z,18.80
2018-12-19T11:15:10.298Z,17.07
2018-12-19T11:17:44.353Z,18.90
2018-12-19T11:20:19.382Z,19.00
2018-12-19T11:22:53.286Z,17.57
2018-12-19T11:25:27.079Z,17.03
2018-12-19T11:28:01.100Z,17.83
2018-12-19T11:30:35.008Z,16.37
2018-12-19T11:33:09.020Z,16.63
2018-12-19T11:35:42.827Z,16.87
2018-12-19T11:38:16.729Z,17.07
2018-12-19T11:40:50.500Z,18.17
2018-12-19T11:43:24.745Z,20.20
2018-12-19T11:45:58.662Z,17.87
2018-12-19T11:48:32.871Z,18.23
2018-12-19T11:51:06.680Z,18.23
2018-12-19T11:53:40.891Z,17.97
2018-12-19T11:56:14.586Z,17.43
2018-12-19T11:58:48.397Z,16.73
2018-12-19T12:01:22.108Z,17.37
2018-12-19T12:03:56.006Z,17.60
2018-12-19T12:06:29.874Z,17.43
2018-12-19T12:09:06.176Z,17.13
2018-12-19T12:11:45.601Z,17.03
2018-12-19T12:14:16.349Z,15.70
2018-12-19T12:16:50.561Z,16.90
2018-12-19T12:19:24.372Z,16.80
2018-12-19T12:21:58.581Z,16.93
2018-12-19T12:24:32.378Z,17.13
2018-12-19T12:27:06.394Z,16.97
2018-12-19T12:29:40.204Z,17.10
2018-12-19T12:32:14.400Z,17.43
2018-12-19T12:34:48.426Z,19.30
2018-12-19T12:37:22.433Z,17.43
2018-12-19T12:39:56.237Z,16.70
2018-12-19T12:42:30.042Z,19.27
2018-12-19T12:45:04.885Z,18.63
2018-12-19T12:47:38.883Z,19.00
2018-12-19T12:50:12.633Z,18.30
2018-12-19T12:52:46.695Z,18.63
2018-12-19T12:55:20.604Z,17.90
2018-12-19T12:57:54.579Z,18.90
2018-12-19T13:00:28.568Z,18.57
2018-12-19T13:03:02.631Z,20.10
2018-12-19T13:05:36.538Z,19.30
2018-12-19T13:08:10.287Z,19.80
2018-12-19T13:10:44.250Z,19.27
2018-12-19T13:13:17.959Z,19.83
2018-12-19T13:15:51.757Z,18.37
2018-12-19T13:18:25.665Z,20.60
2018-12-19T13:20:59.376Z,21.20
2018-12-19T13:23:33.378Z,21.03
2018-12-19T13:26:07.369Z,21.47
2018-12-19T13:28:41.400Z,24.83
2018-12-19T13:31:15.302Z,23.03
2018-12-19T13:33:49.210Z,23.13
2018-12-19T13:36:23.380Z,22.10
2018-12-19T13:38:57.320Z,21.70
2018-12-19T13:41:31.444Z,21.93
2018-12-19T13:44:05.225Z,21.90
2018-12-19T13:46:39.372Z,22.40
2018-12-19T13:49:13.226Z,24.60
2018-12-19T13:51:47.175Z,158.97
2018-12-19T13:54:20.981Z,54.27
2018-12-19T13:56:54.886Z,50.83
2018-12-19T13:59:28.866Z,30.63
2018-12-19T14:02:02.908Z,28.93
2018-12-19T14:04:36.997Z,29.30
2018-12-19T14:07:11.336Z,28.63
2018-12-19T14:09:45.402Z,26.57
2018-12-19T14:12:19.458Z,22.80
2018-12-19T14:14:53.173Z,23.80
2018-12-19T14:17:27.378Z,21.40
2018-12-19T14:20:01.178Z,22.37
2018-12-19T14:22:34.983Z,21.83
2018-12-19T14:25:08.844Z,20.40
2018-12-19T14:27:43.002Z,22.73
2018-12-19T14:30:16.755Z,21.30
2018-12-19T14:32:50.818Z,22.03
2018-12-19T14:35:24.724Z,21.63
2018-12-19T14:37:58.631Z,20.20
2018-12-19T14:40:32.436Z,22.70
2018-12-19T14:43:06.241Z,22.37
2018-12-19T14:45:40.049Z,22.27
2018-12-19T14:48:14.054Z,19.17
2018-12-19T14:50:47.707Z,22.60
2018-12-19T14:53:21.664Z,19.63
2018-12-19T14:55:55.673Z,19.53
2018-12-19T14:58:29.332Z,19.27
2018-12-19T15:01:03.294Z,20.40
2018-12-19T15:03:37.294Z,19.73
2018-12-19T15:06:11.200Z,19.97
2018-12-19T15:08:45.108Z,20.53
2018-12-19T15:11:18.924Z,21.83
2018-12-19T15:13:52.715Z,20.57
2018-12-19T15:16:27.648Z,20.87
2018-12-19T15:19:01.453Z,22.43
2018-12-19T15:21:35.668Z,23.53
2018-12-19T15:24:09.476Z,23.10
2018-12-19T15:26:43.659Z,30.03
2018-12-19T15:29:17.696Z,25.93
2018-12-19T15:31:51.507Z,21.93
2018-12-19T15:34:25.517Z,25.17
2018-12-19T15:36:59.528Z,20.37
2018-12-19T15:39:33.497Z,19.37
2018-12-19T15:42:07.644Z,20.77
2018-12-19T15:44:42.574Z,21.57
2018-12-19T15:47:16.380Z,38.53
2018-12-19T15:49:50.285Z,25.50
2018-12-19T15:52:24.195Z,22.77
2018-12-19T15:55:00.135Z,86.53
2018-12-19T15:57:34.054Z,74.13
2018-12-19T16:00:10.215Z,77.27
2018-12-19T16:02:44.225Z,31.23
2018-12-19T16:05:18.234Z,26.17
2018-12-19T16:07:52.039Z,30.93
2018-12-19T16:10:25.844Z,37.10
2018-12-19T16:12:59.750Z,55.50
2018-12-19T16:15:33.457Z,28.70
2018-12-19T16:18:07.637Z,27.43
2018-12-19T16:20:41.678Z,28.17
2018-12-19T16:23:15.688Z,34.33
2018-12-19T16:25:49.481Z,35.40
2018-12-19T16:28:23.604Z,28.50
2018-12-19T16:30:57.512Z,23.80
2018-12-19T16:33:31.623Z,25.40
2018-12-19T16:36:05.391Z,26.40
2018-12-19T16:38:39.437Z,36.97
2018-12-19T16:41:13.345Z,30.67
2018-12-19T16:43:47.165Z,49.97
2018-12-19T16:46:21.159Z,59.47
2018-12-19T16:48:55.169Z,89.57
2018-12-19T16:51:29.178Z,56.83
2018-12-19T16:54:04.109Z,55.47
2018-12-19T16:56:37.913Z,90.70
2018-12-19T16:59:11.923Z,62.10
2018-12-19T17:01:46.035Z,37.03
2018-12-19T17:04:20.664Z,34.73
2018-12-19T17:06:54.669Z,29.83
2018-12-19T17:09:28.579Z,26.10
2018-12-19T17:12:02.386Z,129.37
2018-12-19T17:14:36.290Z,213.13
2018-12-19T17:17:10.064Z,136.80
2018-12-19T17:19:44.210Z,119.80
2018-12-19T17:22:18.118Z,48.47
2018-12-19T17:24:52.124Z,103.27
2018-12-19T17:27:25.894Z,133.93
2018-12-19T17:30:00.056Z,74.17
2018-12-19T17:32:34.770Z,34.80
2018-12-19T17:35:08.839Z,25.53
2018-12-19T17:37:42.887Z,26.57
2018-12-19T17:40:16.898Z,26.60
2018-12-19T17:42:50.908Z,20.07
2018-12-19T17:45:24.920Z,18.57
2018-12-19T17:47:58.730Z,19.33
2018-12-19T17:50:33.244Z,21.33
2018-12-19T17:53:07.048Z,23.27
2018-12-19T17:55:41.057Z,25.43
2018-12-19T17:58:15.069Z,34.77
2018-12-19T18:00:48.834Z,39.90
2018-12-19T18:03:22.830Z,49.00
2018-12-19T18:05:56.892Z,29.63
2018-12-19T18:08:31.440Z,43.53
2018-12-19T18:11:05.525Z,38.17
2018-12-19T18:13:39.649Z,38.97
2018-12-19T18:16:13.544Z,30.17
2018-12-19T18:18:47.451Z,30.20
2018-12-19T18:21:21.359Z,28.73
2018-12-19T18:23:55.266Z,32.67
2018-12-19T18:26:30.024Z,35.30
2018-12-19T18:29:03.925Z,36.40
2018-12-19T18:31:37.807Z,27.43
2018-12-19T18:34:11.920Z,28.60
2018-12-19T18:36:45.976Z,30.37
2018-12-19T18:39:25.955Z,30.50
2018-12-19T18:41:56.202Z,33.83
2018-12-19T18:44:30.008Z,34.10
2018-12-19T18:47:03.914Z,31.63
2018-12-19T18:49:37.720Z,31.23
2018-12-19T18:52:11.530Z,32.57
2018-12-19T18:54:45.434Z,33.10
2018-12-19T18:57:19.752Z,38.10
2018-12-19T18:59:53.512Z,35.33
2018-12-19T19:02:27.365Z,25.20
2018-12-19T19:05:01.573Z,24.37
2018-12-19T19:07:35.490Z,23.70
2018-12-19T19:10:09.693Z,26.97
2018-12-19T19:12:43.503Z,24.30
2018-12-19T19:15:17.510Z,22.90
2018-12-19T19:17:51.213Z,23.50
2018-12-19T19:20:25.184Z,25.80
2018-12-19T19:22:59.232Z,24.27
2018-12-19T19:25:33.046Z,22.73
2018-12-19T19:28:07.146Z,22.80
2018-12-19T19:30:41.158Z,21.70
2018-12-19T19:33:15.064Z,20.83
2018-12-19T19:35:49.234Z,18.47
2018-12-19T19:38:23.064Z,19.20
2018-12-19T19:40:57.195Z,19.20
2018-12-19T19:43:30.841Z,20.13
2018-12-19T19:46:04.805Z,18.47
2018-12-19T19:48:38.577Z,24.07
2018-12-19T19:51:16.971Z,22.53
2018-12-19T19:53:48.472Z,21.23
2018-12-19T19:56:22.482Z,25.00
2018-12-19T19:58:56.360Z,22.30
2018-12-19T20:01:30.503Z,18.43
2018-12-19T20:04:04.513Z,21.70
2018-12-19T20:06:38.725Z,22.17
2018-12-19T20:09:12.736Z,22.23
2018-12-19T20:11:46.440Z,22.73
2018-12-19T20:14:20.145Z,21.20
2018-12-19T20:16:59.750Z,25.57
2018-12-19T20:19:33.791Z,23.03
2018-12-19T20:22:07.800Z,24.50
2018-12-19T20:24:41.811Z,26.37
2018-12-19T20:27:15.819Z,27.33
2018-12-19T20:29:49.828Z,27.43
2018-12-19T20:32:23.736Z,28.43
2018-12-19T20:34:57.470Z,25.93
2018-12-19T20:37:31.448Z,25.20
2018-12-19T20:40:06.073Z,24.27
2018-12-19T20:42:39.877Z,23.27
2018-12-19T20:45:13.681Z,22.83
2018-12-19T20:47:47.692Z,22.77
2018-12-19T20:50:21.702Z,26.57
2018-12-19T20:52:55.959Z,23.23
2018-12-19T20:55:30.036Z,24.63
2018-12-19T20:58:04.005Z,24.80
2018-12-19T21:00:38.251Z,25.63
2018-12-19T21:03:12.365Z,26.27
2018-12-19T21:05:46.276Z,24.50
2018-12-19T21:08:20.384Z,23.60
2018-12-19T21:10:54.397Z,26.60
2018-12-19T21:13:28.303Z,25.07
2018-12-19T21:16:02.089Z,21.47
2018-12-19T21:18:43.077Z,24.83
2018-12-19T21:21:17.166Z,25.53
2018-12-19T21:23:51.301Z,30.33
2018-12-19T21:26:25.106Z,29.00
2018-12-19T21:28:59.012Z,32.07
2018-12-19T21:31:32.818Z,29.40
2018-12-19T21:34:06.623Z,27.80
2018-12-19T21:36:40.530Z,29.07
2018-12-19T21:39:14.243Z,29.17
2018-12-19T21:41:48.142Z,27.60
2018-12-19T21:44:22.150Z,27.40
2018-12-19T21:46:56.056Z,26.77
2018-12-19T21:49:29.870Z,24.43
2018-12-19T21:52:03.876Z,25.67
2018-12-19T21:54:37.911Z,26.03
2018-12-19T21:57:11.849Z,25.90
2018-12-19T21:59:46.002Z,26.63
2018-12-19T22:02:19.808Z,25.90
2018-12-19T22:04:53.620Z,28.27
2018-12-19T22:07:27.531Z,30.90
2018-12-19T22:10:01.588Z,29.97
2018-12-19T22:12:35.514Z,28.07
2018-12-19T22:15:09.603Z,28.20
2018-12-19T22:17:47.522Z,30.97
2018-12-19T22:20:21.561Z,36.10
2018-12-19T22:22:55.548Z,32.57
2018-12-19T22:25:29.683Z,32.90
2018-12-19T22:28:03.552Z,34.30
2018-12-19T22:30:37.662Z,35.97
2018-12-19T22:33:11.716Z,28.63
2018-12-19T22:35:45.822Z,28.63
2018-12-19T22:38:19.891Z,30.90
2018-12-19T22:40:54.100Z,33.97
2018-12-19T22:43:29.188Z,31.70
2018-12-19T22:46:03.108Z,29.50
2018-12-19T22:48:37.215Z,35.03
2018-12-19T22:51:11.086Z,37.10
2018-12-19T22:53:45.225Z,32.50
2018-12-19T22:56:18.891Z,36.10
2018-12-19T22:58:52.878Z,33.70
2018-12-19T23:01:32.779Z,32.80
2018-12-19T23:04:07.193Z,30.50
2018-12-19T23:06:41.275Z,29.40
2018-12-19T23:09:15.319Z,28.93
2018-12-19T23:11:49.229Z,26.30
2018-12-19T23:14:23.236Z,27.03
2018-12-19T23:16:59.301Z,27.83
2018-12-19T23:19:33.304Z,28.60
2018-12-19T23:22:07.130Z,30.03
2018-12-19T23:24:41.119Z,29.83
2018-12-19T23:27:15.257Z,32.07
2018-12-19T23:29:49.343Z,30.97
2018-12-19T23:32:29.065Z,28.90
2018-12-19T23:35:02.889Z,28.10
2018-12-19T23:37:37.003Z,27.63
2018-12-19T23:40:10.948Z,31.13
2018-12-19T23:42:45.066Z,33.57
2018-12-19T23:45:19.543Z,34.40
2018-12-19T23:47:53.415Z,35.93
2018-12-19T23:50:27.368Z,39.40
2018-12-19T23:53:01.419Z,34.37
2018-12-19T23:55:35.533Z,34.60
2018-12-19T23:58:09.436Z,29.93
